createdAt,value
2023-05-17T00:01:48.229Z,63.63
2023-05-17T00:04:16.590Z,64.90
2023-05-17T00:06:44.614Z,65.04
2023-05-17T00:09:12.463Z,64.33
2023-05-17T00:11:40.511Z,64.97
2023-05-17T00:14:08.377Z,64.67
2023-05-17T00:16:37.565Z,64.63
2023-05-17T00:19:05.558Z,64.71
2023-05-17T00:21:33.492Z,65.65
2023-05-17T00:24:01.393Z,64.51
2023-05-17T00:26:29.335Z,65.64
2023-05-17T00:28:57.214Z,66.58
2023-05-17T00:31:25.110Z,66.45
2023-05-17T00:33:54.366Z,65.90
2023-05-17T00:36:22.698Z,66.20
2023-05-17T00:38:50.565Z,66.66
2023-05-17T00:41:18.585Z,66.17
2023-05-17T00:43:47.162Z,66.83
2023-05-17T00:46:16.158Z,65.62
2023-05-17T00:48:44.414Z,65.91
2023-05-17T00:51:16.200Z,66.57
2023-05-17T00:53:45.096Z,66.34
2023-05-17T00:56:13.194Z,66.16
2023-05-17T00:58:41.767Z,67.00
2023-05-17T01:01:09.735Z,67.85
2023-05-17T01:03:38.168Z,67.23
2023-05-17T01:06:07.239Z,67.40
2023-05-17T01:08:37.940Z,67.92
2023-05-17T01:11:15.415Z,67.78
2023-05-17T01:13:53.221Z,68.34
2023-05-17T01:16:28.337Z,69.34
2023-05-17T01:19:04.003Z,68.24
2023-05-17T01:21:50.297Z,69.39
2023-05-17T01:24:28.340Z,69.83
2023-05-17T01:26:59.970Z,69.65
2023-05-17T01:29:30.102Z,70.07
2023-05-17T01:32:00.731Z,69.65
2023-05-17T01:34:29.879Z,71.65
2023-05-17T01:36:58.400Z,70.80
2023-05-17T01:39:26.725Z,69.17
2023-05-17T01:42:06.215Z,71.48
2023-05-17T01:44:41.693Z,71.86
2023-05-17T01:47:15.002Z,71.84
2023-05-17T01:49:49.392Z,72.81
2023-05-17T01:52:24.239Z,73.18
2023-05-17T01:54:57.308Z,73.43
2023-05-17T01:57:30.659Z,74.38
2023-05-17T02:00:01.386Z,73.95
2023-05-17T02:02:31.060Z,73.41
2023-05-17T02:04:59.418Z,73.40
2023-05-17T02:07:27.530Z,74.62
2023-05-17T02:09:56.688Z,74.80
2023-05-17T02:12:26.104Z,73.79
2023-05-17T02:14:54.025Z,73.96
2023-05-17T02:17:23.152Z,75.02
2023-05-17T02:19:51.982Z,75.51
2023-05-17T02:22:19.834Z,75.00
2023-05-17T02:24:48.941Z,74.97
2023-05-17T02:27:16.879Z,75.19
2023-05-17T02:29:46.114Z,76.39
2023-05-17T02:32:14.012Z,75.42
2023-05-17T02:34:41.851Z,76.37
2023-05-17T02:37:09.750Z,76.41
2023-05-17T02:39:37.999Z,75.68
2023-05-17T02:42:07.811Z,76.63
2023-05-17T02:44:35.760Z,76.13
2023-05-17T02:47:05.419Z,76.31
2023-05-17T02:49:33.379Z,76.70
2023-05-17T02:52:02.330Z,77.33
2023-05-17T02:54:30.908Z,77.22
2023-05-17T02:56:58.824Z,78.01
2023-05-17T02:59:26.859Z,77.84
2023-05-17T03:01:54.960Z,78.35
2023-05-17T03:04:24.979Z,78.04
2023-05-17T03:06:53.078Z,78.50
2023-05-17T03:09:21.396Z,78.33
2023-05-17T03:11:51.123Z,78.72
2023-05-17T03:14:23.875Z,78.59
2023-05-17T03:16:51.812Z,79.01
2023-05-17T03:19:20.000Z,78.85
2023-05-17T03:21:49.396Z,79.71
2023-05-17T03:24:17.386Z,79.15
2023-05-17T03:26:45.473Z,78.93
2023-05-17T03:29:14.266Z,79.68
2023-05-17T03:31:44.827Z,79.28
2023-05-17T03:34:13.476Z,79.55
2023-05-17T03:36:41.807Z,79.94
2023-05-17T03:39:11.262Z,79.79
2023-05-17T03:41:42.216Z,79.88
2023-05-17T03:44:10.671Z,80.52
2023-05-17T03:46:38.914Z,80.10
2023-05-17T03:49:06.950Z,80.05
2023-05-17T03:51:35.960Z,80.75
2023-05-17T03:54:03.924Z,80.01
2023-05-17T03:56:33.352Z,80.84
2023-05-17T03:59:01.282Z,80.42
2023-05-17T04:01:29.310Z,80.91
2023-05-17T04:03:57.382Z,80.78
2023-05-17T04:06:25.586Z,81.04
2023-05-17T04:08:55.134Z,81.86
2023-05-17T04:11:26.598Z,81.45
2023-05-17T04:13:57.498Z,81.32
2023-05-17T04:16:25.675Z,81.30
2023-05-17T04:18:54.522Z,81.53
2023-05-17T04:21:22.546Z,81.30
2023-05-17T04:23:51.687Z,81.24
2023-05-17T04:26:20.480Z,81.51
2023-05-17T04:28:48.935Z,81.96
2023-05-17T04:31:18.835Z,81.68
2023-05-17T04:33:47.213Z,82.16
2023-05-17T04:36:15.248Z,81.54
2023-05-17T04:38:43.885Z,81.76
2023-05-17T04:41:16.193Z,81.87
2023-05-17T04:43:44.694Z,80.88
2023-05-17T04:46:22.365Z,81.21
2023-05-17T04:48:51.201Z,80.99
2023-05-17T04:51:19.527Z,81.56
2023-05-17T04:53:48.183Z,81.34
2023-05-17T04:56:19.713Z,81.38
2023-05-17T04:58:47.633Z,81.19
2023-05-17T05:01:15.787Z,81.12
2023-05-17T05:03:45.121Z,80.91
2023-05-17T05:06:16.185Z,81.48
2023-05-17T05:08:44.572Z,81.75
2023-05-17T05:11:13.865Z,80.78
2023-05-17T05:13:42.429Z,81.51
2023-05-17T05:16:10.469Z,81.52
2023-05-17T05:18:40.058Z,81.22
2023-05-17T05:21:09.813Z,81.46
2023-05-17T05:23:39.565Z,80.57
2023-05-17T05:26:07.614Z,81.40
2023-05-17T05:28:35.599Z,80.29
2023-05-17T05:31:03.988Z,81.42
2023-05-17T05:33:40.588Z,80.74
2023-05-17T05:36:10.518Z,80.20
2023-05-17T05:38:40.813Z,80.40
2023-05-17T05:41:08.839Z,79.50
2023-05-17T05:43:38.957Z,80.71
2023-05-17T05:46:08.043Z,79.08
2023-05-17T05:48:39.450Z,79.09
2023-05-17T05:51:08.194Z,79.64
2023-05-17T05:53:41.385Z,79.90
2023-05-17T05:56:11.302Z,78.47
2023-05-17T05:58:39.562Z,78.74
2023-05-17T06:01:08.223Z,77.75
2023-05-17T06:03:36.133Z,77.99
2023-05-17T06:06:04.325Z,77.63
2023-05-17T06:08:32.189Z,77.30
2023-05-17T06:11:01.410Z,77.52
2023-05-17T06:13:29.314Z,77.02
2023-05-17T06:15:57.668Z,77.26
2023-05-17T06:18:25.595Z,75.90
2023-05-17T06:20:53.654Z,75.49
2023-05-17T06:23:21.817Z,75.31
2023-05-17T06:25:49.714Z,74.86
2023-05-17T06:28:19.247Z,74.13
2023-05-17T06:30:47.662Z,74.06
2023-05-17T06:33:15.612Z,73.93
2023-05-17T06:35:55.476Z,74.44
2023-05-17T06:38:24.699Z,73.68
2023-05-17T06:40:53.846Z,73.88
2023-05-17T06:43:23.490Z,73.79
2023-05-17T06:45:51.770Z,73.79
2023-05-17T06:48:19.657Z,73.79
2023-05-17T06:50:47.662Z,72.76
2023-05-17T06:53:15.626Z,72.59
2023-05-17T06:55:43.775Z,72.82
2023-05-17T06:58:11.621Z,73.69
2023-05-17T07:00:40.838Z,72.34
2023-05-17T07:03:08.827Z,72.18
2023-05-17T07:05:36.934Z,71.66
2023-05-17T07:08:05.347Z,71.35
2023-05-17T07:10:33.240Z,71.25
2023-05-17T07:13:01.274Z,71.41
2023-05-17T07:15:29.511Z,69.78
2023-05-17T07:17:59.421Z,70.04
2023-05-17T07:20:27.427Z,70.35
2023-05-17T07:22:56.301Z,70.60
2023-05-17T07:25:24.152Z,69.97
2023-05-17T07:27:52.300Z,70.30
2023-05-17T07:30:20.172Z,70.64
2023-05-17T07:32:48.157Z,69.81
2023-05-17T07:35:19.270Z,69.58
2023-05-17T07:37:49.020Z,69.37
2023-05-17T07:40:17.014Z,69.29
2023-05-17T07:42:44.832Z,70.36
2023-05-17T07:45:12.938Z,70.12
2023-05-17T07:47:40.908Z,69.89
2023-05-17T07:50:09.269Z,70.38
2023-05-17T07:52:38.611Z,68.80
2023-05-17T07:55:07.832Z,68.69
2023-05-17T07:57:35.787Z,68.63
2023-05-17T08:00:03.875Z,68.61
2023-05-17T08:02:39.385Z,68.00
2023-05-17T08:05:08.487Z,67.39
2023-05-17T08:07:45.408Z,66.78
2023-05-17T08:10:13.267Z,67.79
2023-05-17T08:12:41.337Z,66.80
2023-05-17T08:15:09.797Z,66.65
2023-05-17T08:17:37.871Z,66.59
2023-05-17T08:20:08.176Z,66.35
2023-05-17T08:22:36.549Z,65.87
2023-05-17T08:25:06.390Z,65.05
2023-05-17T08:27:34.500Z,65.23
2023-05-17T08:30:02.488Z,66.30
2023-05-17T08:32:31.121Z,65.97
2023-05-17T08:34:59.223Z,66.26
2023-05-17T08:37:27.060Z,65.58
2023-05-17T08:39:55.034Z,65.81
2023-05-17T08:42:25.733Z,64.77
2023-05-17T08:44:54.900Z,65.58
2023-05-17T08:47:29.684Z,65.65
2023-05-17T08:50:00.944Z,65.74
2023-05-17T08:52:31.852Z,65.17
2023-05-17T08:55:01.040Z,64.17
2023-05-17T08:57:31.595Z,64.20
2023-05-17T09:00:00.414Z,64.62
2023-05-17T09:02:31.730Z,64.04
2023-05-17T09:05:00.958Z,61.92
2023-05-17T09:07:28.912Z,63.52
2023-05-17T09:09:56.846Z,62.45
2023-05-17T09:12:25.826Z,63.58
2023-05-17T09:14:55.118Z,64.63
2023-05-17T09:17:23.203Z,63.66
2023-05-17T09:19:52.050Z,63.24
2023-05-17T09:22:21.488Z,62.97
2023-05-17T09:24:51.305Z,61.01
2023-05-17T09:27:19.768Z,60.56
2023-05-17T09:29:48.371Z,58.94
2023-05-17T09:32:18.790Z,59.05
2023-05-17T09:34:48.326Z,58.83
2023-05-17T09:37:18.204Z,57.36
2023-05-17T09:39:48.390Z,57.60
2023-05-17T09:42:17.037Z,56.93
2023-05-17T09:44:53.318Z,54.89
2023-05-17T09:47:26.677Z,54.94
2023-05-17T09:49:56.474Z,56.57
2023-05-17T09:52:25.656Z,56.14
2023-05-17T09:54:54.704Z,56.13
2023-05-17T09:57:22.957Z,56.39
2023-05-17T09:59:51.621Z,56.80
2023-05-17T10:02:23.987Z,58.17
2023-05-17T10:04:54.017Z,57.35
2023-05-17T10:07:22.591Z,57.18
2023-05-17T10:09:51.076Z,57.67
2023-05-17T10:12:23.693Z,58.16
2023-05-17T10:14:55.923Z,58.12
2023-05-17T10:17:24.455Z,58.89
2023-05-17T10:19:54.586Z,58.65
2023-05-17T10:22:24.033Z,58.75
2023-05-17T10:24:52.892Z,58.24
2023-05-17T10:27:21.977Z,53.40
2023-05-17T10:29:51.271Z,52.83
2023-05-17T10:32:23.358Z,53.30
2023-05-17T10:35:02.077Z,51.38
2023-05-17T10:37:38.011Z,51.11
2023-05-17T10:40:07.293Z,51.21
2023-05-17T10:42:35.934Z,49.02
2023-05-17T10:45:04.210Z,50.38
2023-05-17T10:47:35.657Z,50.22
2023-05-17T10:50:12.996Z,50.79
2023-05-17T10:52:47.969Z,51.67
2023-05-17T10:55:20.309Z,49.70
2023-05-17T10:58:09.649Z,50.04
2023-05-17T11:00:41.166Z,49.73
2023-05-17T11:03:13.925Z,49.45
2023-05-17T11:05:45.656Z,50.39
2023-05-17T11:08:15.799Z,47.34
2023-05-17T11:11:20.751Z,47.42
2023-05-17T11:13:53.802Z,50.53
2023-05-17T11:16:29.064Z,51.28
2023-05-17T11:19:07.360Z,51.63
2023-05-17T11:21:36.931Z,51.98
2023-05-17T11:24:05.454Z,52.42
2023-05-17T11:26:35.580Z,52.84
2023-05-17T11:29:07.778Z,52.97
2023-05-17T11:31:37.432Z,52.03
2023-05-17T11:34:06.071Z,52.04
2023-05-17T11:36:52.382Z,52.40
2023-05-17T11:39:22.119Z,54.02
2023-05-17T11:41:51.987Z,54.59
2023-05-17T11:44:26.109Z,54.12
2023-05-17T11:47:03.057Z,53.69
2023-05-17T11:49:36.307Z,54.06
2023-05-17T11:52:07.018Z,54.08
2023-05-17T11:54:35.339Z,54.17
2023-05-17T11:57:04.162Z,54.99
2023-05-17T11:59:38.406Z,55.21
2023-05-17T12:02:06.660Z,55.30
2023-05-17T12:04:37.874Z,55.03
2023-05-17T12:07:10.532Z,54.80
2023-05-17T12:09:40.329Z,54.97
2023-05-17T12:12:08.997Z,55.02
2023-05-17T12:14:37.175Z,55.26
2023-05-17T12:17:09.556Z,55.17
2023-05-17T12:19:37.949Z,55.13
2023-05-17T12:22:13.398Z,54.70
2023-05-17T12:24:42.634Z,54.44
2023-05-17T12:27:11.458Z,54.84
2023-05-17T12:29:39.868Z,53.02
2023-05-17T12:32:10.821Z,52.67
2023-05-17T12:34:39.360Z,52.83
2023-05-17T12:37:11.023Z,52.58
2023-05-17T12:39:41.398Z,52.50
2023-05-17T12:42:10.666Z,50.80
2023-05-17T12:44:39.068Z,50.62
2023-05-17T12:47:07.686Z,50.23
2023-05-17T12:49:40.076Z,51.91
2023-05-17T12:52:08.361Z,52.43
2023-05-17T12:54:36.301Z,53.52
2023-05-17T12:57:13.983Z,54.04
2023-05-17T12:59:49.603Z,53.42
2023-05-17T13:02:18.449Z,53.75
2023-05-17T13:04:47.429Z,54.40
2023-05-17T13:07:23.748Z,53.98
2023-05-17T13:09:52.004Z,54.00
2023-05-17T13:12:22.677Z,53.62
2023-05-17T13:14:52.492Z,53.11
2023-05-17T13:17:25.268Z,54.37
2023-05-17T13:19:53.405Z,54.72
2023-05-17T13:22:21.325Z,52.93
2023-05-17T13:24:49.247Z,52.10
2023-05-17T13:27:17.238Z,51.64
2023-05-17T13:29:46.923Z,52.01
2023-05-17T13:32:15.685Z,53.47
2023-05-17T13:34:43.636Z,53.10
2023-05-17T13:37:12.775Z,52.79
2023-05-17T13:39:41.710Z,53.63
2023-05-17T13:42:10.759Z,53.94
2023-05-17T13:44:39.306Z,54.02
2023-05-17T13:47:08.715Z,52.97
2023-05-17T13:49:37.247Z,52.15
2023-05-17T13:52:08.501Z,52.99
2023-05-17T13:54:36.851Z,52.28
2023-05-17T13:57:05.191Z,52.81
2023-05-17T13:59:33.223Z,53.60
2023-05-17T14:02:01.279Z,53.25
2023-05-17T14:04:30.572Z,53.08
2023-05-17T14:06:58.561Z,54.66
2023-05-17T14:09:26.437Z,54.82
2023-05-17T14:11:54.348Z,54.18
2023-05-17T14:14:25.046Z,53.28
2023-05-17T14:16:52.934Z,53.81
2023-05-17T14:19:21.162Z,54.12
2023-05-17T14:21:51.175Z,54.66
2023-05-17T14:24:19.100Z,55.60
2023-05-17T14:26:47.093Z,54.80
2023-05-17T14:29:14.935Z,55.44
2023-05-17T14:31:43.272Z,53.75
2023-05-17T14:34:11.250Z,53.28
2023-05-17T14:36:39.386Z,54.35
2023-05-17T14:39:10.073Z,55.07
2023-05-17T14:41:39.245Z,53.10
2023-05-17T14:44:07.281Z,53.60
2023-05-17T14:46:35.416Z,54.58
2023-05-17T14:49:03.371Z,54.65
2023-05-17T14:51:31.365Z,54.43
2023-05-17T14:53:59.440Z,54.63
2023-05-17T14:56:28.756Z,54.31
2023-05-17T14:58:56.666Z,52.97
2023-05-17T15:01:24.575Z,53.64
2023-05-17T15:03:52.543Z,53.50
2023-05-17T15:06:24.859Z,53.48
2023-05-17T15:08:52.788Z,53.74
2023-05-17T15:11:21.883Z,53.78
2023-05-17T15:13:51.182Z,54.35
2023-05-17T15:16:19.337Z,55.18
2023-05-17T15:18:47.659Z,55.19
2023-05-17T15:21:17.626Z,55.02
2023-05-17T15:23:46.035Z,55.64
2023-05-17T15:26:14.143Z,56.32
2023-05-17T15:28:42.125Z,56.13
2023-05-17T15:31:11.613Z,56.01
2023-05-17T15:33:40.434Z,56.63
2023-05-17T15:36:09.752Z,57.12
2023-05-17T15:38:39.753Z,57.22
2023-05-17T15:41:09.266Z,57.32
2023-05-17T15:43:37.212Z,57.41
2023-05-17T15:46:05.215Z,57.11
2023-05-17T15:48:35.938Z,57.37
2023-05-17T15:51:04.168Z,57.14
2023-05-17T15:53:32.250Z,57.54
2023-05-17T15:56:00.080Z,56.81
2023-05-17T15:58:28.676Z,56.91
2023-05-17T16:00:56.755Z,56.78
2023-05-17T16:03:24.754Z,56.30
2023-05-17T16:05:54.064Z,55.94
2023-05-17T16:08:23.218Z,56.26
2023-05-17T16:10:51.197Z,55.72
2023-05-17T16:13:19.217Z,56.10
2023-05-17T16:15:47.101Z,57.29
2023-05-17T16:18:15.429Z,57.64
2023-05-17T16:20:43.524Z,56.74
2023-05-17T16:23:13.759Z,56.18
2023-05-17T16:25:41.687Z,56.39
2023-05-17T16:28:09.586Z,55.48
2023-05-17T16:30:38.217Z,55.07
2023-05-17T16:33:08.385Z,54.79
2023-05-17T16:35:36.579Z,55.88
2023-05-17T16:38:04.506Z,55.18
2023-05-17T16:40:33.878Z,54.81
2023-05-17T16:43:02.272Z,54.39
2023-05-17T16:45:30.388Z,54.19
2023-05-17T16:47:58.566Z,54.96
2023-05-17T16:50:26.729Z,53.11
2023-05-17T16:52:54.693Z,53.75
2023-05-17T16:55:22.847Z,52.25
2023-05-17T16:57:52.430Z,52.36
2023-05-17T17:00:21.459Z,52.16
2023-05-17T17:02:49.454Z,52.42
2023-05-17T17:05:17.751Z,51.72
2023-05-17T17:07:47.536Z,51.32
2023-05-17T17:10:15.463Z,51.84
2023-05-17T17:12:43.452Z,51.50
2023-05-17T17:15:13.058Z,51.92
2023-05-17T17:17:41.114Z,52.71
2023-05-17T17:20:10.386Z,52.05
2023-05-17T17:22:38.351Z,52.53
2023-05-17T17:25:07.500Z,51.93
2023-05-17T17:27:35.874Z,52.77
2023-05-17T17:30:04.158Z,52.44
2023-05-17T17:32:33.670Z,52.49
2023-05-17T17:35:01.853Z,52.35
2023-05-17T17:37:29.860Z,52.87
2023-05-17T17:39:57.736Z,53.46
2023-05-17T17:42:25.678Z,52.58
2023-05-17T17:44:54.994Z,52.96
2023-05-17T17:47:23.291Z,52.55
2023-05-17T17:49:52.633Z,52.74
2023-05-17T17:52:20.560Z,52.90
2023-05-17T17:54:48.685Z,54.03
2023-05-17T17:57:18.861Z,53.31
2023-05-17T17:59:46.814Z,52.61
2023-05-17T18:02:14.722Z,53.35
2023-05-17T18:04:42.639Z,52.90
2023-05-17T18:07:12.755Z,53.31
2023-05-17T18:09:40.649Z,53.31
2023-05-17T18:12:09.252Z,52.33
2023-05-17T18:14:37.248Z,53.31
2023-05-17T18:17:05.439Z,53.07
2023-05-17T18:19:33.317Z,53.24
2023-05-17T18:22:01.204Z,53.57
2023-05-17T18:24:31.642Z,53.48
2023-05-17T18:26:59.525Z,54.33
2023-05-17T18:29:27.550Z,54.06
2023-05-17T18:31:55.722Z,53.67
2023-05-17T18:34:25.615Z,54.34
2023-05-17T18:36:53.535Z,54.61
2023-05-17T18:39:21.452Z,55.56
2023-05-17T18:41:51.154Z,55.40
2023-05-17T18:44:20.069Z,56.53
2023-05-17T18:46:48.680Z,56.70
2023-05-17T18:49:17.268Z,56.07
2023-05-17T18:51:45.377Z,57.21
2023-05-17T18:54:13.302Z,56.58
2023-05-17T18:56:41.313Z,57.17
2023-05-17T18:59:10.647Z,56.68
2023-05-17T19:01:38.740Z,57.11
2023-05-17T19:04:06.785Z,57.88
2023-05-17T19:06:35.043Z,56.10
2023-05-17T19:09:03.007Z,57.04
2023-05-17T19:11:31.494Z,59.32
2023-05-17T19:13:59.565Z,58.76
2023-05-17T19:16:28.808Z,59.71
2023-05-17T19:18:56.840Z,60.32
2023-05-17T19:21:24.783Z,60.74
2023-05-17T19:23:52.708Z,61.67
2023-05-17T19:26:21.612Z,62.74
2023-05-17T19:28:49.444Z,63.27
2023-05-17T19:31:17.416Z,63.68
2023-05-17T19:33:46.691Z,64.66
2023-05-17T19:36:14.609Z,65.16
2023-05-17T19:38:42.578Z,65.52
2023-05-17T19:41:10.508Z,65.93
2023-05-17T19:43:38.460Z,66.13
2023-05-17T19:46:10.469Z,66.82
2023-05-17T19:48:39.491Z,66.90
2023-05-17T19:51:08.666Z,67.36
2023-05-17T19:53:50.775Z,67.58
2023-05-17T19:56:21.384Z,67.96
2023-05-17T19:58:49.328Z,68.19
2023-05-17T20:01:17.334Z,68.01
2023-05-17T20:03:45.987Z,68.20
2023-05-17T20:06:15.379Z,69.14
2023-05-17T20:08:43.514Z,69.40
2023-05-17T20:11:11.557Z,69.60
2023-05-17T20:13:40.432Z,69.25
2023-05-17T20:16:12.593Z,69.15
2023-05-17T20:18:42.580Z,69.90
2023-05-17T20:21:11.339Z,70.08
2023-05-17T20:23:40.661Z,69.84
2023-05-17T20:26:08.553Z,70.21
2023-05-17T20:28:36.556Z,70.73
2023-05-17T20:31:04.525Z,70.40
2023-05-17T20:33:32.365Z,70.78
2023-05-17T20:36:00.251Z,70.81
2023-05-17T20:38:28.184Z,70.83
2023-05-17T20:40:58.270Z,71.90
2023-05-17T20:43:28.782Z,71.59
2023-05-17T20:45:57.001Z,71.97
2023-05-17T20:48:24.905Z,72.19
2023-05-17T20:50:52.729Z,72.72
2023-05-17T20:53:20.648Z,72.99
2023-05-17T20:55:49.360Z,73.39
2023-05-17T20:58:18.693Z,73.14
2023-05-17T21:00:46.548Z,73.06
2023-05-17T21:03:14.489Z,73.67
2023-05-17T21:05:42.776Z,74.27
2023-05-17T21:08:12.878Z,73.83
2023-05-17T21:10:42.814Z,74.71
2023-05-17T21:13:12.467Z,74.99
2023-05-17T21:15:41.770Z,74.97
2023-05-17T21:18:11.019Z,75.21
2023-05-17T21:20:39.489Z,74.86
2023-05-17T21:23:07.326Z,75.48
2023-05-17T21:25:35.802Z,75.58
2023-05-17T21:28:03.754Z,75.66
2023-05-17T21:30:31.904Z,76.29
2023-05-17T21:33:01.383Z,76.84
2023-05-17T21:35:29.394Z,76.34
2023-05-17T21:37:57.591Z,76.28
2023-05-17T21:40:25.472Z,76.93
2023-05-17T21:42:53.410Z,76.10
2023-05-17T21:45:21.408Z,76.50
2023-05-17T21:47:49.370Z,77.09
2023-05-17T21:50:18.763Z,77.43
2023-05-17T21:52:46.746Z,77.09
2023-05-17T21:55:14.653Z,76.51
2023-05-17T21:57:42.706Z,77.47
2023-05-17T22:00:12.709Z,77.84
2023-05-17T22:02:41.210Z,77.08
2023-05-17T22:05:09.707Z,78.32
2023-05-17T22:07:39.507Z,78.02
2023-05-17T22:10:09.800Z,78.27
2023-05-17T22:12:38.429Z,78.00
2023-05-17T22:15:07.547Z,78.43
2023-05-17T22:17:47.979Z,78.34
2023-05-17T22:20:23.471Z,77.82
2023-05-17T22:22:52.999Z,77.75
2023-05-17T22:25:21.136Z,78.09
2023-05-17T22:27:49.061Z,78.32
2023-05-17T22:30:17.034Z,78.86
2023-05-17T22:32:45.033Z,78.49
2023-05-17T22:35:13.039Z,78.43
2023-05-17T22:37:42.914Z,78.40
2023-05-17T22:40:12.904Z,79.32
2023-05-17T22:42:41.706Z,78.89
2023-05-17T22:45:12.655Z,79.05
2023-05-17T22:47:42.368Z,79.21
2023-05-17T22:50:14.591Z,78.93
2023-05-17T22:52:42.843Z,79.15
2023-05-17T22:55:12.308Z,79.07
2023-05-17T22:57:40.543Z,79.28
2023-05-17T23:00:11.417Z,78.84
2023-05-17T23:02:39.599Z,79.59
2023-05-17T23:05:08.333Z,78.83
2023-05-17T23:07:38.440Z,78.83
2023-05-17T23:10:09.533Z,79.19
2023-05-17T23:12:38.877Z,79.81
2023-05-17T23:15:08.036Z,79.72
2023-05-17T23:17:36.515Z,78.42
2023-05-17T23:20:09.907Z,79.26
2023-05-17T23:22:38.897Z,79.20
2023-05-17T23:25:07.861Z,79.66
2023-05-17T23:27:36.368Z,79.12
2023-05-17T23:30:07.393Z,79.49
2023-05-17T23:32:35.450Z,79.88
2023-05-17T23:35:04.729Z,79.51
2023-05-17T23:37:33.256Z,80.18
2023-05-17T23:40:01.240Z,80.31
2023-05-17T23:42:29.729Z,80.42
2023-05-17T23:44:57.762Z,80.33
2023-05-17T23:47:28.087Z,81.02
2023-05-17T23:49:56.575Z,81.00
2023-05-17T23:52:24.514Z,81.52
2023-05-17T23:54:57.255Z,81.12
2023-05-17T23:57:25.663Z,80.98
2023-05-17T23:59:53.560Z,81.40
